sensor_id;sensor_type;location;lat;lon;timestamp;P1;P2;P0
44933;PMS3003;30667;43.614;1.442;2023-03-23T00:01:10;3.80;3.40;1.00
44933;PMS3003;30667;43.614;1.442;2023-03-23T00:03:38;4.40;4.40;2.20
44933;PMS3003;30667;43.614;1.442;2023-03-23T00:06:04;4.60;4.60;2.00
44933;PMS3003;30667;43.614;1.442;2023-03-23T00:08:34;3.80;3.80;2.00
44933;PMS3003;30667;43.614;1.442;2023-03-23T00:11:10;6.00;5.00;2.00
44933;PMS3003;30667;43.614;1.442;2023-03-23T00:13:46;4.20;4.20;2.20
44933;PMS3003;30667;43.614;1.442;2023-03-23T00:16:16;4.60;4.60;2.00
44933;PMS3003;30667;43.614;1.442;2023-03-23T00:18:52;4.60;4.60;2.60
44933;PMS3003;30667;43.614;1.442;2023-03-23T00:21:18;5.40;5.20;2.40
44933;PMS3003;30667;43.614;1.442;2023-03-23T00:23:57;5.00;5.00;3.00
44933;PMS3003;30667;43.614;1.442;2023-03-23T00:26:24;5.00;4.80;2.60
44933;PMS3003;30667;43.614;1.442;2023-03-23T00:28:53;7.80;7.80;2.20
44933;PMS3003;30667;43.614;1.442;2023-03-23T00:31:19;3.75;3.75;1.75
44933;PMS3003;30667;43.614;1.442;2023-03-23T00:33:44;6.25;6.25;3.00
44933;PMS3003;30667;43.614;1.442;2023-03-23T00:36:10;5.00;5.00;3.00
44933;PMS3003;30667;43.614;1.442;2023-03-23T00:38:37;8.40;7.60;3.40
44933;PMS3003;30667;43.614;1.442;2023-03-23T00:41:04;6.80;6.80;3.00
44933;PMS3003;30667;43.614;1.442;2023-03-23T00:43:30;8.40;7.20;2.80
44933;PMS3003;30667;43.614;1.442;2023-03-23T00:45:57;8.40;8.00;4.00
44933;PMS3003;30667;43.614;1.442;2023-03-23T00:48:26;9.00;8.40;4.00
44933;PMS3003;30667;43.614;1.442;2023-03-23T00:50:53;6.80;5.40;2.80
44933;PMS3003;30667;43.614;1.442;2023-03-23T00:53:19;8.20;8.20;4.00
44933;PMS3003;30667;43.614;1.442;2023-03-23T00:55:46;12.00;11.00;6.80
44933;PMS3003;30667;43.614;1.442;2023-03-23T00:58:12;10.60;9.40;4.00
44933;PMS3003;30667;43.614;1.442;2023-03-23T01:00:39;14.80;10.00;5.00
44933;PMS3003;30667;43.614;1.442;2023-03-23T01:03:05;11.20;10.80;6.80
44933;PMS3003;30667;43.614;1.442;2023-03-23T01:05:35;10.20;9.60;5.40
44933;PMS3003;30667;43.614;1.442;2023-03-23T01:08:02;12.80;11.20;5.00
44933;PMS3003;30667;43.614;1.442;2023-03-23T01:10:29;14.60;13.20;7.80
44933;PMS3003;30667;43.614;1.442;2023-03-23T01:12:58;14.00;12.20;8.00
44933;PMS3003;30667;43.614;1.442;2023-03-23T01:15:26;14.00;12.40;8.00
44933;PMS3003;30667;43.614;1.442;2023-03-23T01:17:53;14.60;12.60;8.00
44933;PMS3003;30667;43.614;1.442;2023-03-23T01:20:19;11.60;10.60;6.60
44933;PMS3003;30667;43.614;1.442;2023-03-23T01:22:45;11.00;10.50;5.00
44933;PMS3003;30667;43.614;1.442;2023-03-23T01:25:11;14.00;12.75;8.25
44933;PMS3003;30667;43.614;1.442;2023-03-23T01:27:37;14.20;14.20;9.00
44933;PMS3003;30667;43.614;1.442;2023-03-23T01:30:03;16.40;15.20;8.40
44933;PMS3003;30667;43.614;1.442;2023-03-23T01:32:30;17.60;16.80;9.00
44933;PMS3003;30667;43.614;1.442;2023-03-23T01:34:56;18.00;15.25;8.75
44933;PMS3003;30667;43.614;1.442;2023-03-23T01:37:22;17.75;15.25;8.50
44933;PMS3003;30667;43.614;1.442;2023-03-23T01:39:54;15.80;14.60;8.60
44933;PMS3003;30667;43.614;1.442;2023-03-23T01:42:26;18.80;16.40;9.00
44933;PMS3003;30667;43.614;1.442;2023-03-23T01:45:39;15.20;15.20;9.00
44933;PMS3003;30667;43.614;1.442;2023-03-23T01:47:49;18.40;14.80;9.00
44933;PMS3003;30667;43.614;1.442;2023-03-23T01:50:20;15.80;15.00;9.00
44933;PMS3003;30667;43.614;1.442;2023-03-23T01:52:49;15.20;14.80;8.20
44933;PMS3003;30667;43.614;1.442;2023-03-23T01:55:18;18.00;14.40;8.40
44933;PMS3003;30667;43.614;1.442;2023-03-23T01:57:45;19.00;15.40;9.00
44933;PMS3003;30667;43.614;1.442;2023-03-23T02:00:12;14.20;12.80;7.40
44933;PMS3003;30667;43.614;1.442;2023-03-23T02:02:44;18.00;15.40;9.00
44933;PMS3003;30667;43.614;1.442;2023-03-23T02:05:14;20.20;18.20;10.00
44933;PMS3003;30667;43.614;1.442;2023-03-23T02:07:46;18.60;18.20;10.40
44933;PMS3003;30667;43.614;1.442;2023-03-23T02:10:13;19.60;16.20;8.60
44933;PMS3003;30667;43.614;1.442;2023-03-23T02:12:39;22.00;19.00;10.50
44933;PMS3003;30667;43.614;1.442;2023-03-23T02:15:04;20.75;19.00;10.00
44933;PMS3003;30667;43.614;1.442;2023-03-23T02:17:32;19.60;17.40;9.60
44933;PMS3003;30667;43.614;1.442;2023-03-23T02:20:25;18.40;18.00;12.80
44933;PMS3003;30667;43.614;1.442;2023-03-23T02:36:34;19.50;18.25;10.75
44933;PMS3003;30667;43.614;1.442;2023-03-23T02:42:04;18.80;18.60;10.40
44933;PMS3003;30667;43.614;1.442;2023-03-23T02:44:32;20.80;20.20;10.40
44933;PMS3003;30667;43.614;1.442;2023-03-23T02:47:01;21.80;20.00;10.60
44933;PMS3003;30667;43.614;1.442;2023-03-23T02:49:31;19.40;18.20;11.40
44933;PMS3003;30667;43.614;1.442;2023-03-23T02:51:59;20.00;18.80;11.80
44933;PMS3003;30667;43.614;1.442;2023-03-23T02:54:29;19.40;18.40;11.20
44933;PMS3003;30667;43.614;1.442;2023-03-23T02:56:55;20.50;19.50;12.25
44933;PMS3003;30667;43.614;1.442;2023-03-23T02:59:22;16.60;16.20;10.20
44933;PMS3003;30667;43.614;1.442;2023-03-23T03:01:52;15.50;14.50;9.50
44933;PMS3003;30667;43.614;1.442;2023-03-23T03:04:24;19.40;18.20;9.40
44933;PMS3003;30667;43.614;1.442;2023-03-23T03:11:50;24.40;19.20;12.20
44933;PMS3003;30667;43.614;1.442;2023-03-23T03:14:23;22.00;20.80;12.60
44933;PMS3003;30667;43.614;1.442;2023-03-23T03:17:41;19.20;15.80;9.00
44933;PMS3003;30667;43.614;1.442;2023-03-23T03:20:02;18.80;17.00;10.20
44933;PMS3003;30667;43.614;1.442;2023-03-23T03:22:32;24.20;19.00;12.40
44933;PMS3003;30667;43.614;1.442;2023-03-23T03:25:02;18.40;17.60;12.20
44933;PMS3003;30667;43.614;1.442;2023-03-23T03:27:29;19.60;16.60;9.00
44933;PMS3003;30667;43.614;1.442;2023-03-23T03:29:57;21.40;20.20;11.20
44933;PMS3003;30667;43.614;1.442;2023-03-23T03:32:28;21.80;19.80;11.80
44933;PMS3003;30667;43.614;1.442;2023-03-23T03:35:01;16.40;15.00;8.00
44933;PMS3003;30667;43.614;1.442;2023-03-23T03:37:32;18.80;18.80;11.80
44933;PMS3003;30667;43.614;1.442;2023-03-23T03:40:03;22.20;19.20;10.40
44933;PMS3003;30667;43.614;1.442;2023-03-23T03:42:36;20.20;17.80;11.20
44933;PMS3003;30667;43.614;1.442;2023-03-23T03:45:02;17.00;16.20;9.00
44933;PMS3003;30667;43.614;1.442;2023-03-23T03:47:27;18.00;17.00;9.75
44933;PMS3003;30667;43.614;1.442;2023-03-23T03:49:53;18.75;17.00;9.50
44933;PMS3003;30667;43.614;1.442;2023-03-23T03:52:18;20.00;18.00;10.75
44933;PMS3003;30667;43.614;1.442;2023-03-23T03:54:44;16.00;16.00;10.25
44933;PMS3003;30667;43.614;1.442;2023-03-23T03:57:09;18.00;17.00;9.50
44933;PMS3003;30667;43.614;1.442;2023-03-23T03:59:35;20.75;17.75;9.50
44933;PMS3003;30667;43.614;1.442;2023-03-23T04:02:00;20.25;16.25;10.00
44933;PMS3003;30667;43.614;1.442;2023-03-23T04:04:26;17.50;14.75;9.00
44933;PMS3003;30667;43.614;1.442;2023-03-23T04:06:51;15.25;14.00;8.50
44933;PMS3003;30667;43.614;1.442;2023-03-23T04:09:17;17.50;15.75;8.75
44933;PMS3003;30667;43.614;1.442;2023-03-23T04:11:44;15.60;15.60;9.60
44933;PMS3003;30667;43.614;1.442;2023-03-23T04:14:10;15.50;14.50;9.00
44933;PMS3003;30667;43.614;1.442;2023-03-23T04:16:35;19.00;17.40;9.80
44933;PMS3003;30667;43.614;1.442;2023-03-23T04:19:01;15.00;14.00;8.00
44933;PMS3003;30667;43.614;1.442;2023-03-23T04:21:26;14.75;14.50;9.00
44933;PMS3003;30667;43.614;1.442;2023-03-23T04:23:55;17.20;14.40;8.40
44933;PMS3003;30667;43.614;1.442;2023-03-23T04:26:26;15.20;14.60;8.00
44933;PMS3003;30667;43.614;1.442;2023-03-23T04:28:53;14.60;13.40;7.40
44933;PMS3003;30667;43.614;1.442;2023-03-23T04:31:20;17.40;15.60;10.00
44933;PMS3003;30667;43.614;1.442;2023-03-23T04:33:49;19.00;16.80;10.80
44933;PMS3003;30667;43.614;1.442;2023-03-23T04:36:17;17.60;14.40;8.60
44933;PMS3003;30667;43.614;1.442;2023-03-23T04:38:43;20.00;19.00;12.00
44933;PMS3003;30667;43.614;1.442;2023-03-23T04:41:09;18.75;16.00;9.25
44933;PMS3003;30667;43.614;1.442;2023-03-23T04:43:34;18.25;15.00;9.00
44933;PMS3003;30667;43.614;1.442;2023-03-23T04:46:06;18.40;18.00;10.00
44933;PMS3003;30667;43.614;1.442;2023-03-23T04:48:33;19.00;16.60;9.40
44933;PMS3003;30667;43.614;1.442;2023-03-23T04:51:03;19.20;16.20;9.40
44933;PMS3003;30667;43.614;1.442;2023-03-23T04:53:32;20.20;18.20;10.40
44933;PMS3003;30667;43.614;1.442;2023-03-23T04:55:58;17.80;15.60;9.20
44933;PMS3003;30667;43.614;1.442;2023-03-23T04:58:26;19.40;18.60;11.60
44933;PMS3003;30667;43.614;1.442;2023-03-23T05:00:53;16.60;15.40;8.00
44933;PMS3003;30667;43.614;1.442;2023-03-23T05:03:18;19.25;17.50;11.00
44933;PMS3003;30667;43.614;1.442;2023-03-23T05:05:44;21.40;19.80;11.80
44933;PMS3003;30667;43.614;1.442;2023-03-23T05:08:18;18.20;17.40;10.00
44933;PMS3003;30667;43.614;1.442;2023-03-23T05:10:54;18.80;18.40;10.00
44933;PMS3003;30667;43.614;1.442;2023-03-23T05:13:21;20.60;19.80;11.00
44933;PMS3003;30667;43.614;1.442;2023-03-23T05:15:47;18.40;17.00;10.00
44933;PMS3003;30667;43.614;1.442;2023-03-23T05:18:13;19.50;18.75;11.75
44933;PMS3003;30667;43.614;1.442;2023-03-23T05:20:39;18.40;17.60;9.00
44933;PMS3003;30667;43.614;1.442;2023-03-23T05:23:06;19.60;19.00;11.40
44933;PMS3003;30667;43.614;1.442;2023-03-23T05:25:32;19.50;18.00;12.00
44933;PMS3003;30667;43.614;1.442;2023-03-23T05:28:01;17.00;16.20;10.80
44933;PMS3003;30667;43.614;1.442;2023-03-23T05:30:27;17.20;17.20;10.00
44933;PMS3003;30667;43.614;1.442;2023-03-23T05:32:54;22.20;19.40;11.60
44933;PMS3003;30667;43.614;1.442;2023-03-23T05:35:20;18.50;18.25;9.00
44933;PMS3003;30667;43.614;1.442;2023-03-23T05:37:45;25.00;19.75;12.50
44933;PMS3003;30667;43.614;1.442;2023-03-23T05:40:11;22.00;19.50;11.25
44933;PMS3003;30667;43.614;1.442;2023-03-23T05:42:38;19.60;18.20;10.20
44933;PMS3003;30667;43.614;1.442;2023-03-23T05:45:06;22.80;20.20;12.00
44933;PMS3003;30667;43.614;1.442;2023-03-23T05:47:33;20.20;20.00;13.00
44933;PMS3003;30667;43.614;1.442;2023-03-23T05:49:59;20.80;19.40;10.40
44933;PMS3003;30667;43.614;1.442;2023-03-23T05:52:25;22.40;19.00;12.00
44933;PMS3003;30667;43.614;1.442;2023-03-23T05:54:52;20.00;19.00;10.60
44933;PMS3003;30667;43.614;1.442;2023-03-23T05:57:18;24.80;22.40;12.80
44933;PMS3003;30667;43.614;1.442;2023-03-23T05:59:46;23.80;19.20;11.60
44933;PMS3003;30667;43.614;1.442;2023-03-23T06:02:12;25.60;22.40;12.80
44933;PMS3003;30667;43.614;1.442;2023-03-23T06:04:39;24.80;20.00;11.40
44933;PMS3003;30667;43.614;1.442;2023-03-23T06:07:06;17.80;17.40;10.80
44933;PMS3003;30667;43.614;1.442;2023-03-23T06:09:32;20.00;19.00;11.80
44933;PMS3003;30667;43.614;1.442;2023-03-23T06:11:58;19.50;18.75;11.50
44933;PMS3003;30667;43.614;1.442;2023-03-23T06:14:23;18.00;18.00;10.00
44933;PMS3003;30667;43.614;1.442;2023-03-23T06:16:49;24.00;19.75;13.00
44933;PMS3003;30667;43.614;1.442;2023-03-23T06:19:14;21.00;18.00;10.00
44933;PMS3003;30667;43.614;1.442;2023-03-23T06:21:40;19.00;17.20;9.80
44933;PMS3003;30667;43.614;1.442;2023-03-23T06:24:06;19.80;18.20;11.80
44933;PMS3003;30667;43.614;1.442;2023-03-23T06:26:34;19.25;17.50;11.00
44933;PMS3003;30667;43.614;1.442;2023-03-23T06:29:01;20.40;18.40;9.20
44933;PMS3003;30667;43.614;1.442;2023-03-23T06:31:29;18.80;17.60;11.60
44933;PMS3003;30667;43.614;1.442;2023-03-23T06:33:56;20.20;18.00;10.80
44933;PMS3003;30667;43.614;1.442;2023-03-23T06:36:21;22.00;20.25;11.00
44933;PMS3003;30667;43.614;1.442;2023-03-23T06:38:47;17.80;16.80;10.00
44933;PMS3003;30667;43.614;1.442;2023-03-23T06:41:13;20.00;18.20;11.40
44933;PMS3003;30667;43.614;1.442;2023-03-23T06:43:39;18.50;16.00;10.00
44933;PMS3003;30667;43.614;1.442;2023-03-23T06:46:07;20.00;20.00;12.00
44933;PMS3003;30667;43.614;1.442;2023-03-23T06:48:33;18.00;17.80;11.80
44933;PMS3003;30667;43.614;1.442;2023-03-23T06:50:58;17.00;16.25;8.25
44933;PMS3003;30667;43.614;1.442;2023-03-23T06:53:24;11.75;10.00;6.00
44933;PMS3003;30667;43.614;1.442;2023-03-23T06:55:49;13.50;9.25;5.25
44933;PMS3003;30667;43.614;1.442;2023-03-23T06:58:15;16.40;16.00;8.40
44933;PMS3003;30667;43.614;1.442;2023-03-23T07:00:41;18.50;15.00;9.75
44933;PMS3003;30667;43.614;1.442;2023-03-23T07:03:06;15.25;14.00;7.00
44933;PMS3003;30667;43.614;1.442;2023-03-23T07:05:33;19.40;16.60;9.80
44933;PMS3003;30667;43.614;1.442;2023-03-23T07:08:00;18.40;15.60;10.00
44933;PMS3003;30667;43.614;1.442;2023-03-23T07:10:27;17.20;16.00;9.00
44933;PMS3003;30667;43.614;1.442;2023-03-23T07:12:53;15.80;15.20;8.80
44933;PMS3003;30667;43.614;1.442;2023-03-23T07:15:19;22.00;18.25;10.00
44933;PMS3003;30667;43.614;1.442;2023-03-23T07:17:44;19.50;15.50;9.25
44933;PMS3003;30667;43.614;1.442;2023-03-23T07:20:10;17.75;15.00;8.00
44933;PMS3003;30667;43.614;1.442;2023-03-23T07:22:36;18.00;16.40;9.80
44933;PMS3003;30667;43.614;1.442;2023-03-23T07:25:03;14.20;14.00;8.20
44933;PMS3003;30667;43.614;1.442;2023-03-23T07:27:29;14.40;14.20;8.00
44933;PMS3003;30667;43.614;1.442;2023-03-23T07:29:55;15.20;14.80;8.60
44933;PMS3003;30667;43.614;1.442;2023-03-23T07:32:22;15.20;15.20;8.60
44933;PMS3003;30667;43.614;1.442;2023-03-23T07:34:48;18.50;16.50;10.25
44933;PMS3003;30667;43.614;1.442;2023-03-23T07:37:13;19.75;18.25;10.00
44933;PMS3003;30667;43.614;1.442;2023-03-23T07:39:39;15.50;14.25;8.00
44933;PMS3003;30667;43.614;1.442;2023-03-23T07:42:05;14.40;13.00;7.80
44933;PMS3003;30667;43.614;1.442;2023-03-23T07:44:32;13.00;12.60;7.00
44933;PMS3003;30667;43.614;1.442;2023-03-23T07:46:57;19.50;15.75;9.50
44933;PMS3003;30667;43.614;1.442;2023-03-23T07:49:23;18.75;17.75;10.25
44933;PMS3003;30667;43.614;1.442;2023-03-23T07:51:48;21.50;19.00;10.75
44933;PMS3003;30667;43.614;1.442;2023-03-23T07:54:14;18.00;17.50;10.00
44933;PMS3003;30667;43.614;1.442;2023-03-23T07:56:41;19.20;17.80;11.80
44933;PMS3003;30667;43.614;1.442;2023-03-23T07:59:06;18.00;17.00;10.00
44933;PMS3003;30667;43.614;1.442;2023-03-23T08:01:33;20.80;17.40;10.00
44933;PMS3003;30667;43.614;1.442;2023-03-23T08:03:58;17.00;16.80;10.00
44933;PMS3003;30667;43.614;1.442;2023-03-23T08:06:24;20.40;17.80;10.40
44933;PMS3003;30667;43.614;1.442;2023-03-23T08:08:50;17.80;17.00;10.80
44933;PMS3003;30667;43.614;1.442;2023-03-23T08:11:16;17.50;16.00;9.00
44933;PMS3003;30667;43.614;1.442;2023-03-23T08:13:42;17.20;17.20;9.00
44933;PMS3003;30667;43.614;1.442;2023-03-23T08:16:08;18.00;17.80;11.40
44933;PMS3003;30667;43.614;1.442;2023-03-23T08:18:35;21.00;16.80;10.00
44933;PMS3003;30667;43.614;1.442;2023-03-23T08:21:01;14.00;13.80;9.00
44933;PMS3003;30667;43.614;1.442;2023-03-23T08:23:29;13.60;11.80;7.40
44933;PMS3003;30667;43.614;1.442;2023-03-23T08:25:55;16.20;16.00;9.40
44933;PMS3003;30667;43.614;1.442;2023-03-23T08:28:21;14.50;13.75;8.00
44933;PMS3003;30667;43.614;1.442;2023-03-23T08:30:47;16.00;16.00;10.20
44933;PMS3003;30667;43.614;1.442;2023-03-23T08:33:13;18.00;16.75;9.50
44933;PMS3003;30667;43.614;1.442;2023-03-23T08:35:39;20.40;17.40;9.60
44933;PMS3003;30667;43.614;1.442;2023-03-23T08:38:05;18.00;16.00;9.25
44933;PMS3003;30667;43.614;1.442;2023-03-23T08:40:30;10.25;10.00;6.00
44933;PMS3003;30667;43.614;1.442;2023-03-23T08:42:57;15.60;13.40;7.60
44933;PMS3003;30667;43.614;1.442;2023-03-23T08:45:23;20.75;18.00;10.00
44933;PMS3003;30667;43.614;1.442;2023-03-23T08:47:50;21.60;17.00;9.00
44933;PMS3003;30667;43.614;1.442;2023-03-23T08:50:18;18.20;15.40;8.00
44933;PMS3003;30667;43.614;1.442;2023-03-23T08:52:45;12.20;10.80;6.80
44933;PMS3003;30667;43.614;1.442;2023-03-23T08:55:11;14.00;12.00;7.00
44933;PMS3003;30667;43.614;1.442;2023-03-23T08:57:37;16.00;15.60;8.40
44933;PMS3003;30667;43.614;1.442;2023-03-23T09:00:04;19.20;15.20;8.60
44933;PMS3003;30667;43.614;1.442;2023-03-23T09:02:42;17.40;16.60;9.00
44933;PMS3003;30667;43.614;1.442;2023-03-23T09:05:12;17.00;16.00;10.00
44933;PMS3003;30667;43.614;1.442;2023-03-23T09:07:41;16.20;15.00;8.60
44933;PMS3003;30667;43.614;1.442;2023-03-23T09:10:11;15.40;14.00;9.00
44933;PMS3003;30667;43.614;1.442;2023-03-23T09:12:38;15.80;15.80;10.60
44933;PMS3003;30667;43.614;1.442;2023-03-23T09:15:04;15.00;14.60;8.00
44933;PMS3003;30667;43.614;1.442;2023-03-23T09:17:36;15.80;15.00;8.20
44933;PMS3003;30667;43.614;1.442;2023-03-23T09:20:07;17.20;16.20;9.00
44933;PMS3003;30667;43.614;1.442;2023-03-23T09:22:43;9.40;9.40;4.80
44933;PMS3003;30667;43.614;1.442;2023-03-23T09:25:11;15.00;13.80;8.80
44933;PMS3003;30667;43.614;1.442;2023-03-23T09:27:38;16.40;14.40;8.40
44933;PMS3003;30667;43.614;1.442;2023-03-23T09:30:09;12.00;11.00;5.20
44933;PMS3003;30667;43.614;1.442;2023-03-23T09:32:36;12.00;12.00;9.00
44933;PMS3003;30667;43.614;1.442;2023-03-23T09:35:03;17.40;15.80;8.20
44933;PMS3003;30667;43.614;1.442;2023-03-23T09:37:33;16.20;14.40;8.80
44933;PMS3003;30667;43.614;1.442;2023-03-23T09:40:00;15.40;13.00;8.00
44933;PMS3003;30667;43.614;1.442;2023-03-23T09:50:37;13.20;12.60;6.40
44933;PMS3003;30667;43.614;1.442;2023-03-23T09:55:40;14.00;13.40;6.80
44933;PMS3003;30667;43.614;1.442;2023-03-23T09:58:17;15.20;14.40;8.00
44933;PMS3003;30667;43.614;1.442;2023-03-23T10:01:08;17.00;16.20;8.60
44933;PMS3003;30667;43.614;1.442;2023-03-23T10:03:40;12.60;11.20;6.00
44933;PMS3003;30667;43.614;1.442;2023-03-23T10:06:09;15.20;13.60;8.00
44933;PMS3003;30667;43.614;1.442;2023-03-23T10:08:37;17.80;15.40;8.40
44933;PMS3003;30667;43.614;1.442;2023-03-23T10:16:40;12.20;11.80;7.80
44933;PMS3003;30667;43.614;1.442;2023-03-23T10:19:29;15.60;14.60;8.00
44933;PMS3003;30667;43.614;1.442;2023-03-23T10:22:04;10.80;10.00;5.00
44933;PMS3003;30667;43.614;1.442;2023-03-23T10:24:36;13.60;13.60;8.80
44933;PMS3003;30667;43.614;1.442;2023-03-23T10:32:42;11.00;9.00;5.00
44933;PMS3003;30667;43.614;1.442;2023-03-23T10:35:16;16.80;12.80;7.00
44933;PMS3003;30667;43.614;1.442;2023-03-23T10:37:47;13.20;12.00;7.20
44933;PMS3003;30667;43.614;1.442;2023-03-23T10:40:19;11.60;10.00;5.60
44933;PMS3003;30667;43.614;1.442;2023-03-23T10:42:51;17.60;14.20;7.60
44933;PMS3003;30667;43.614;1.442;2023-03-23T10:45:24;14.20;12.80;8.00
44933;PMS3003;30667;43.614;1.442;2023-03-23T10:50:30;10.60;10.60;5.80
44933;PMS3003;30667;43.614;1.442;2023-03-23T10:52:57;10.20;9.80;5.80
44933;PMS3003;30667;43.614;1.442;2023-03-23T10:55:34;11.40;10.20;5.60
44933;PMS3003;30667;43.614;1.442;2023-03-23T10:58:09;13.20;12.00;8.00
44933;PMS3003;30667;43.614;1.442;2023-03-23T11:00:41;9.20;9.00;4.00
44933;PMS3003;30667;43.614;1.442;2023-03-23T11:05:56;12.40;12.40;7.00
44933;PMS3003;30667;43.614;1.442;2023-03-23T11:08:27;14.60;14.00;10.20
44933;PMS3003;30667;43.614;1.442;2023-03-23T11:11:07;13.00;11.40;6.00
44933;PMS3003;30667;43.614;1.442;2023-03-23T11:13:39;12.60;11.60;6.40
44933;PMS3003;30667;43.614;1.442;2023-03-23T11:16:21;15.20;14.40;9.20
44933;PMS3003;30667;43.614;1.442;2023-03-23T11:18:53;81.60;69.80;56.00
44933;PMS3003;30667;43.614;1.442;2023-03-23T11:21:19;60.25;48.25;32.00
44933;PMS3003;30667;43.614;1.442;2023-03-23T11:23:48;633.40;473.80;221.60
44933;PMS3003;30667;43.614;1.442;2023-03-23T11:26:33;786.17;573.50;250.00
44933;PMS3003;30667;43.614;1.442;2023-03-23T11:29:09;624.60;480.60;215.60
44933;PMS3003;30667;43.614;1.442;2023-03-23T11:31:46;511.25;381.00;188.75
44933;PMS3003;30667;43.614;1.442;2023-03-23T11:34:30;387.00;307.33;161.33
44933;PMS3003;30667;43.614;1.442;2023-03-23T11:39:29;207.75;159.00;90.25
44933;PMS3003;30667;43.614;1.442;2023-03-23T11:42:23;125.00;107.40;61.40
44933;PMS3003;30667;43.614;1.442;2023-03-23T11:45:03;106.40;86.40;51.80
44933;PMS3003;30667;43.614;1.442;2023-03-23T11:50:32;76.40;58.80;36.80
44933;PMS3003;30667;43.614;1.442;2023-03-23T11:53:01;70.25;54.00;32.25
44933;PMS3003;30667;43.614;1.442;2023-03-23T11:55:33;56.50;45.75;29.25
44933;PMS3003;30667;43.614;1.442;2023-03-23T11:58:21;53.25;41.50;25.25
44933;PMS3003;30667;43.614;1.442;2023-03-23T12:00:56;51.50;40.75;25.75
44933;PMS3003;30667;43.614;1.442;2023-03-23T12:03:48;47.75;36.25;22.75
44933;PMS3003;30667;43.614;1.442;2023-03-23T12:06:33;44.60;37.20;22.80
44933;PMS3003;30667;43.614;1.442;2023-03-23T12:12:12;29.60;26.80;16.60
44933;PMS3003;30667;43.614;1.442;2023-03-23T12:14:48;36.40;31.60;19.60
44933;PMS3003;30667;43.614;1.442;2023-03-23T12:25:43;54.75;43.25;26.50
44933;PMS3003;30667;43.614;1.442;2023-03-23T12:28:50;48.50;41.00;25.75
44933;PMS3003;30667;43.614;1.442;2023-03-23T12:31:39;48.00;39.25;23.25
44933;PMS3003;30667;43.614;1.442;2023-03-23T12:40:18;32.60;30.00;19.00
44933;PMS3003;30667;43.614;1.442;2023-03-23T12:42:54;31.20;27.60;17.60
44933;PMS3003;30667;43.614;1.442;2023-03-23T12:48:27;27.60;22.80;15.00
44933;PMS3003;30667;43.614;1.442;2023-03-23T12:51:08;32.20;28.00;18.00
44933;PMS3003;30667;43.614;1.442;2023-03-23T12:53:47;31.20;26.80;17.00
44933;PMS3003;30667;43.614;1.442;2023-03-23T12:56:26;31.40;26.60;16.20
44933;PMS3003;30667;43.614;1.442;2023-03-23T13:01:41;26.40;25.00;15.80
44933;PMS3003;30667;43.614;1.442;2023-03-23T13:04:11;26.40;25.60;16.80
44933;PMS3003;30667;43.614;1.442;2023-03-23T13:09:15;23.00;21.60;11.00
44933;PMS3003;30667;43.614;1.442;2023-03-23T13:11:42;22.20;20.40;12.80
44933;PMS3003;30667;43.614;1.442;2023-03-23T13:22:42;19.40;18.80;11.00
44933;PMS3003;30667;43.614;1.442;2023-03-23T13:25:18;21.20;20.00;11.80
44933;PMS3003;30667;43.614;1.442;2023-03-23T13:27:55;22.00;18.60;11.00
44933;PMS3003;30667;43.614;1.442;2023-03-23T13:30:22;21.20;19.80;12.60
44933;PMS3003;30667;43.614;1.442;2023-03-23T13:32:49;20.40;18.60;13.20
44933;PMS3003;30667;43.614;1.442;2023-03-23T13:35:17;19.60;18.80;11.60
44933;PMS3003;30667;43.614;1.442;2023-03-23T13:37:49;19.20;17.20;11.80
44933;PMS3003;30667;43.614;1.442;2023-03-23T13:40:27;21.00;19.60;10.40
44933;PMS3003;30667;43.614;1.442;2023-03-23T13:42:57;24.80;20.60;12.80
44933;PMS3003;30667;43.614;1.442;2023-03-23T13:45:46;20.60;19.20;12.60
44933;PMS3003;30667;43.614;1.442;2023-03-23T13:51:21;25.25;23.00;14.00
44933;PMS3003;30667;43.614;1.442;2023-03-23T13:53:30;23.40;20.80;12.60
44933;PMS3003;30667;43.614;1.442;2023-03-23T14:01:56;25.60;22.80;13.00
44933;PMS3003;30667;43.614;1.442;2023-03-23T14:04:41;25.60;21.20;12.00
44933;PMS3003;30667;43.614;1.442;2023-03-23T14:07:11;19.00;17.25;11.00
44933;PMS3003;30667;43.614;1.442;2023-03-23T14:09:42;19.40;17.40;11.00
44933;PMS3003;30667;43.614;1.442;2023-03-23T14:12:25;20.60;19.80;12.00
44933;PMS3003;30667;43.614;1.442;2023-03-23T14:14:57;28.00;25.00;15.20
44933;PMS3003;30667;43.614;1.442;2023-03-23T14:17:30;31.00;26.60;16.00
44933;PMS3003;30667;43.614;1.442;2023-03-23T14:19:58;33.00;28.60;17.00
44933;PMS3003;30667;43.614;1.442;2023-03-23T14:22:26;32.20;29.20;18.40
44933;PMS3003;30667;43.614;1.442;2023-03-23T14:27:35;29.80;27.80;17.20
44933;PMS3003;30667;43.614;1.442;2023-03-23T14:30:01;32.50;28.75;19.00
44933;PMS3003;30667;43.614;1.442;2023-03-23T14:32:32;33.40;29.80;17.20
44933;PMS3003;30667;43.614;1.442;2023-03-23T14:34:58;27.40;24.00;14.20
44933;PMS3003;30667;43.614;1.442;2023-03-23T14:37:32;33.60;25.40;15.20
44933;PMS3003;30667;43.614;1.442;2023-03-23T14:40:00;20.20;18.60;12.00
44933;PMS3003;30667;43.614;1.442;2023-03-23T14:42:31;22.00;19.80;12.40
44933;PMS3003;30667;43.614;1.442;2023-03-23T14:44:59;26.20;21.80;11.80
44933;PMS3003;30667;43.614;1.442;2023-03-23T14:47:31;26.60;23.00;13.80
44933;PMS3003;30667;43.614;1.442;2023-03-23T14:50:00;24.00;20.80;12.80
44933;PMS3003;30667;43.614;1.442;2023-03-23T14:52:32;24.00;21.20;13.20
44933;PMS3003;30667;43.614;1.442;2023-03-23T14:55:12;19.40;19.00;12.00
44933;PMS3003;30667;43.614;1.442;2023-03-23T14:57:40;19.20;19.00;12.60
44933;PMS3003;30667;43.614;1.442;2023-03-23T15:00:20;19.60;18.80;12.00
44933;PMS3003;30667;43.614;1.442;2023-03-23T15:02:52;24.00;19.40;12.00
44933;PMS3003;30667;43.614;1.442;2023-03-23T15:05:29;25.60;22.00;14.00
44933;PMS3003;30667;43.614;1.442;2023-03-23T15:08:00;22.80;21.80;14.20
44933;PMS3003;30667;43.614;1.442;2023-03-23T15:10:40;21.40;19.60;11.80
44933;PMS3003;30667;43.614;1.442;2023-03-23T15:13:09;25.80;22.40;13.00
44933;PMS3003;30667;43.614;1.442;2023-03-23T15:15:37;22.20;20.60;12.20
44933;PMS3003;30667;43.614;1.442;2023-03-23T15:18:03;21.00;20.00;12.20
44933;PMS3003;30667;43.614;1.442;2023-03-23T15:20:30;19.60;18.60;11.80
44933;PMS3003;30667;43.614;1.442;2023-03-23T15:22:56;24.40;20.40;12.00
44933;PMS3003;30667;43.614;1.442;2023-03-23T15:25:30;25.80;21.20;13.00
44933;PMS3003;30667;43.614;1.442;2023-03-23T15:28:06;18.20;16.60;10.20
44933;PMS3003;30667;43.614;1.442;2023-03-23T15:30:54;20.40;20.40;14.00
44933;PMS3003;30667;43.614;1.442;2023-03-23T15:33:22;22.80;20.60;13.00
44933;PMS3003;30667;43.614;1.442;2023-03-23T15:35:53;23.20;22.20;15.00
44933;PMS3003;30667;43.614;1.442;2023-03-23T15:38:21;20.40;19.00;12.00
44933;PMS3003;30667;43.614;1.442;2023-03-23T15:40:54;25.20;22.00;12.80
44933;PMS3003;30667;43.614;1.442;2023-03-23T15:43:22;21.60;19.00;13.00
44933;PMS3003;30667;43.614;1.442;2023-03-23T15:46:02;22.20;19.60;12.00